createdAt,value
2023-05-08T00:00:59.793Z,91.43
2023-05-08T00:03:27.091Z,91.06
2023-05-08T00:05:55.412Z,90.43
2023-05-08T00:08:21.800Z,89.91
2023-05-08T00:10:48.276Z,90.49
2023-05-08T00:13:14.776Z,90.56
2023-05-08T00:15:41.276Z,89.75
2023-05-08T00:18:07.760Z,90.47
2023-05-08T00:20:34.443Z,90.41
2023-05-08T00:23:01.002Z,90.32
2023-05-08T00:25:27.847Z,91.04
2023-05-08T00:27:54.254Z,91.07
2023-05-08T00:30:21.279Z,91.52
2023-05-08T00:32:47.780Z,91.27
2023-05-08T00:35:14.402Z,91.95
2023-05-08T00:37:41.273Z,91.15
2023-05-08T00:40:11.888Z,91.22
2023-05-08T00:42:38.494Z,90.95
2023-05-08T00:45:05.329Z,90.70
2023-05-08T00:47:32.555Z,90.48
2023-05-08T00:50:00.948Z,90.40
2023-05-08T00:52:32.946Z,90.27
2023-05-08T00:55:00.332Z,90.26
2023-05-08T00:57:26.818Z,90.67
2023-05-08T00:59:55.488Z,90.93
2023-05-08T01:02:22.213Z,90.46
2023-05-08T01:04:49.195Z,91.65
2023-05-08T01:07:17.819Z,91.21
2023-05-08T01:09:44.202Z,91.25
2023-05-08T01:12:16.269Z,90.28
2023-05-08T01:14:51.224Z,90.66
2023-05-08T01:17:28.078Z,91.66
2023-05-08T01:20:09.763Z,91.82
2023-05-08T01:23:08.037Z,91.66
2023-05-08T01:25:44.124Z,92.01
2023-05-08T01:28:38.176Z,91.93
2023-05-08T01:31:16.741Z,91.88
2023-05-08T01:34:04.956Z,92.02
2023-05-08T01:36:46.191Z,91.97
2023-05-08T01:39:24.592Z,91.90
2023-05-08T01:42:00.696Z,91.94
2023-05-08T01:44:34.221Z,91.71
2023-05-08T01:47:06.765Z,91.08
2023-05-08T01:49:38.909Z,91.80
2023-05-08T01:52:18.156Z,91.91
2023-05-08T01:54:55.614Z,90.67
2023-05-08T01:57:26.686Z,90.90
2023-05-08T01:59:55.972Z,91.28
2023-05-08T02:02:23.267Z,91.02
2023-05-08T02:04:51.741Z,90.50
2023-05-08T02:07:22.201Z,91.16
2023-05-08T02:09:48.740Z,91.50
2023-05-08T02:12:17.260Z,91.68
2023-05-08T02:14:45.806Z,91.91
2023-05-08T02:17:16.150Z,91.59
2023-05-08T02:19:44.436Z,92.53
2023-05-08T02:22:11.943Z,91.79
2023-05-08T02:24:38.716Z,91.75
2023-05-08T02:27:07.573Z,91.98
2023-05-08T02:29:35.004Z,91.74
2023-05-08T02:32:03.079Z,91.95
2023-05-08T02:34:30.824Z,92.16
2023-05-08T02:36:58.964Z,92.40
2023-05-08T02:39:30.328Z,92.44
2023-05-08T02:41:57.263Z,92.50
2023-05-08T02:44:23.787Z,91.60
2023-05-08T02:47:00.790Z,92.44
2023-05-08T02:49:30.115Z,92.07
2023-05-08T02:52:13.741Z,91.36
2023-05-08T02:54:46.942Z,91.71
2023-05-08T02:57:31.935Z,91.87
2023-05-08T03:00:07.687Z,91.78
2023-05-08T03:02:39.999Z,92.40
2023-05-08T03:05:19.143Z,92.10
2023-05-08T03:07:50.180Z,92.40
2023-05-08T03:10:19.143Z,92.01
2023-05-08T03:12:49.662Z,91.84
2023-05-08T03:15:34.952Z,91.99
2023-05-08T03:18:07.924Z,92.47
2023-05-08T03:20:38.803Z,91.64
2023-05-08T03:23:08.229Z,91.44
2023-05-08T03:25:38.468Z,91.07
2023-05-08T03:28:06.096Z,91.93
2023-05-08T03:30:40.194Z,91.88
2023-05-08T03:33:08.038Z,92.62
2023-05-08T03:35:39.084Z,91.91
2023-05-08T03:38:06.685Z,92.26
2023-05-08T03:40:38.754Z,92.23
2023-05-08T03:43:08.618Z,91.93
2023-05-08T03:45:39.379Z,91.62
2023-05-08T03:48:07.323Z,91.20
2023-05-08T03:50:37.846Z,92.52
2023-05-08T03:53:04.889Z,91.76
2023-05-08T03:55:32.142Z,91.55
2023-05-08T03:58:10.526Z,92.11
2023-05-08T04:00:49.160Z,92.32
2023-05-08T04:03:41.386Z,92.92
2023-05-08T04:06:22.899Z,92.19
2023-05-08T04:08:58.373Z,92.61
2023-05-08T04:11:41.291Z,92.56
2023-05-08T04:14:13.414Z,92.34
2023-05-08T04:16:42.195Z,92.37
2023-05-08T04:19:18.051Z,92.04
2023-05-08T04:21:44.920Z,91.42
2023-05-08T04:24:14.699Z,91.99
2023-05-08T04:26:42.396Z,91.69
2023-05-08T04:29:09.609Z,92.41
2023-05-08T04:31:37.210Z,92.58
2023-05-08T04:34:04.506Z,91.98
2023-05-08T04:36:31.689Z,92.43
2023-05-08T04:38:59.166Z,91.79
2023-05-08T04:41:26.287Z,91.73
2023-05-08T04:43:54.342Z,91.44
2023-05-08T04:46:20.920Z,91.94
2023-05-08T04:48:47.457Z,92.49
2023-05-08T04:51:13.892Z,91.98
2023-05-08T04:53:40.386Z,92.14
2023-05-08T04:56:06.966Z,92.20
2023-05-08T04:58:33.344Z,91.91
2023-05-08T05:01:03.844Z,91.49
2023-05-08T05:03:30.766Z,91.46
2023-05-08T05:05:58.948Z,91.69
2023-05-08T05:08:25.565Z,90.68
2023-05-08T05:10:52.365Z,90.70
2023-05-08T05:13:19.767Z,90.86
2023-05-08T05:15:46.343Z,90.77
2023-05-08T05:18:12.905Z,91.31
2023-05-08T05:20:39.398Z,91.03
2023-05-08T05:23:05.848Z,90.94
2023-05-08T05:25:32.175Z,91.09
2023-05-08T05:27:58.529Z,90.29
2023-05-08T05:30:24.927Z,90.85
2023-05-08T05:32:51.414Z,91.21
2023-05-08T05:35:17.861Z,91.04
2023-05-08T05:37:44.216Z,90.79
2023-05-08T05:40:13.111Z,90.52
2023-05-08T05:42:39.478Z,90.91
2023-05-08T05:45:06.459Z,91.09
2023-05-08T05:47:32.791Z,90.60
2023-05-08T05:49:59.157Z,90.68
2023-05-08T05:52:25.635Z,90.28
2023-05-08T05:54:52.019Z,90.47
2023-05-08T05:57:18.381Z,90.39
2023-05-08T05:59:45.143Z,90.48
2023-05-08T06:02:18.578Z,90.53
2023-05-08T06:04:45.316Z,90.08
2023-05-08T06:07:11.719Z,90.44
2023-05-08T06:09:38.327Z,89.75
2023-05-08T06:12:04.772Z,89.88
2023-05-08T06:14:31.248Z,90.17
2023-05-08T06:16:58.447Z,89.97
2023-05-08T06:19:24.811Z,89.41
2023-05-08T06:21:52.098Z,89.10
2023-05-08T06:24:18.500Z,89.45
2023-05-08T06:26:45.330Z,90.75
2023-05-08T06:29:11.711Z,89.50
2023-05-08T06:31:38.200Z,89.50
2023-05-08T06:34:04.723Z,89.40
2023-05-08T06:36:31.702Z,89.10
2023-05-08T06:38:58.099Z,89.08
2023-05-08T06:41:24.537Z,88.64
2023-05-08T06:43:51.070Z,88.71
2023-05-08T06:46:18.019Z,88.71
2023-05-08T06:48:44.428Z,88.96
2023-05-08T06:51:10.739Z,86.94
2023-05-08T06:53:37.156Z,87.54
2023-05-08T06:56:03.597Z,87.27
2023-05-08T06:58:32.084Z,86.54
2023-05-08T07:01:04.121Z,86.26
2023-05-08T07:03:30.453Z,86.86
2023-05-08T07:05:56.864Z,85.13
2023-05-08T07:08:23.257Z,84.56
2023-05-08T07:10:49.671Z,85.48
2023-05-08T07:13:19.934Z,85.48
2023-05-08T07:15:46.497Z,86.46
2023-05-08T07:18:12.916Z,86.81
2023-05-08T07:20:39.429Z,86.04
2023-05-08T07:23:07.018Z,86.39
2023-05-08T07:25:33.353Z,86.73
2023-05-08T07:28:01.313Z,87.46
2023-05-08T07:30:28.062Z,87.38
2023-05-08T07:32:54.455Z,87.08
2023-05-08T07:35:20.841Z,87.97
2023-05-08T07:37:47.334Z,87.63
2023-05-08T07:40:13.725Z,88.00
2023-05-08T07:42:41.449Z,87.70
2023-05-08T07:45:12.575Z,87.38
2023-05-08T07:47:48.579Z,87.31
2023-05-08T07:50:15.119Z,87.65
2023-05-08T07:52:41.499Z,88.32
2023-05-08T07:55:08.490Z,87.12
2023-05-08T07:57:38.890Z,87.66
2023-05-08T08:00:07.148Z,86.81
2023-05-08T08:02:33.711Z,86.84
2023-05-08T08:05:00.245Z,87.28
2023-05-08T08:07:27.177Z,87.65
2023-05-08T08:09:53.642Z,86.96
2023-05-08T08:12:20.784Z,86.92
2023-05-08T08:14:47.143Z,87.31
2023-05-08T08:17:13.535Z,87.13
2023-05-08T08:19:40.276Z,86.31
2023-05-08T08:22:06.658Z,86.42
2023-05-08T08:24:33.108Z,86.73
2023-05-08T08:26:59.489Z,86.55
2023-05-08T08:29:25.970Z,86.80
2023-05-08T08:31:52.390Z,85.49
2023-05-08T08:34:18.801Z,86.15
2023-05-08T08:36:45.224Z,86.11
2023-05-08T08:39:13.432Z,85.41
2023-05-08T08:41:41.140Z,85.66
2023-05-08T08:44:07.581Z,84.58
2023-05-08T08:46:38.275Z,83.71
2023-05-08T08:49:08.197Z,83.49
2023-05-08T08:51:45.970Z,81.96
2023-05-08T08:54:14.014Z,81.82
2023-05-08T08:56:44.622Z,80.99
2023-05-08T08:59:16.508Z,80.82
2023-05-08T09:01:48.017Z,80.60
2023-05-08T09:04:16.316Z,81.32
2023-05-08T09:06:42.983Z,82.00
2023-05-08T09:09:12.278Z,80.60
2023-05-08T09:11:40.393Z,80.77
2023-05-08T09:14:07.089Z,80.63
2023-05-08T09:16:33.476Z,78.61
2023-05-08T09:19:00.485Z,79.76
2023-05-08T09:21:27.758Z,78.03
2023-05-08T09:24:01.356Z,79.78
2023-05-08T09:26:27.703Z,79.61
2023-05-08T09:29:23.776Z,79.62
2023-05-08T09:31:52.701Z,79.34
2023-05-08T09:34:30.301Z,78.06
2023-05-08T09:37:13.873Z,77.50
2023-05-08T09:39:41.988Z,76.39
2023-05-08T09:42:08.334Z,74.42
2023-05-08T09:45:01.136Z,75.87
2023-05-08T09:47:27.572Z,75.43
2023-05-08T09:50:02.091Z,73.42
2023-05-08T09:52:29.668Z,74.69
2023-05-08T09:55:01.769Z,75.79
2023-05-08T09:57:29.451Z,75.70
2023-05-08T10:00:11.883Z,75.24
2023-05-08T10:02:53.739Z,75.28
2023-05-08T10:05:25.294Z,76.18
2023-05-08T10:07:51.834Z,76.09
2023-05-08T10:10:33.562Z,77.26
2023-05-08T10:13:00.095Z,77.00
2023-05-08T10:15:29.964Z,75.02
2023-05-08T10:17:56.379Z,75.54
2023-05-08T10:20:27.437Z,76.09
2023-05-08T10:22:57.250Z,75.47
2023-05-08T10:25:24.712Z,75.61
2023-05-08T10:28:06.355Z,74.97
2023-05-08T10:30:38.150Z,75.67
2023-05-08T10:33:09.476Z,74.74
2023-05-08T10:35:37.610Z,75.16
2023-05-08T10:38:05.194Z,74.43
2023-05-08T10:40:31.642Z,74.53
2023-05-08T10:42:59.273Z,74.61
2023-05-08T10:45:26.755Z,74.76
2023-05-08T10:48:08.472Z,73.68
2023-05-08T10:50:44.571Z,71.73
2023-05-08T10:53:11.138Z,72.81
2023-05-08T10:55:38.860Z,72.17
2023-05-08T10:58:08.362Z,73.41
2023-05-08T11:01:07.863Z,71.99
2023-05-08T11:03:44.992Z,71.88
2023-05-08T11:06:11.944Z,71.75
2023-05-08T11:09:04.759Z,71.74
2023-05-08T11:11:33.726Z,71.48
2023-05-08T11:14:12.021Z,72.72
2023-05-08T11:16:53.778Z,73.26
2023-05-08T11:19:22.312Z,73.68
2023-05-08T11:22:13.557Z,73.79
2023-05-08T11:24:46.703Z,74.03
2023-05-08T11:27:13.171Z,73.10
2023-05-08T11:29:39.909Z,72.64
2023-05-08T11:32:06.487Z,71.88
2023-05-08T11:34:45.846Z,72.99
2023-05-08T11:37:17.915Z,71.58
2023-05-08T11:39:44.542Z,71.15
2023-05-08T11:42:29.120Z,71.21
2023-05-08T11:45:09.750Z,69.63
2023-05-08T11:47:44.434Z,68.81
2023-05-08T11:50:13.277Z,69.46
2023-05-08T11:52:41.585Z,69.80
2023-05-08T11:55:12.820Z,69.71
2023-05-08T11:57:39.359Z,69.70
2023-05-08T12:00:10.671Z,70.43
2023-05-08T12:02:42.454Z,69.78
2023-05-08T12:05:10.671Z,69.53
2023-05-08T12:07:45.112Z,68.48
2023-05-08T12:10:11.966Z,68.58
2023-05-08T12:12:40.598Z,68.92
2023-05-08T12:15:12.303Z,67.69
2023-05-08T12:17:39.297Z,66.25
2023-05-08T12:20:13.513Z,66.12
2023-05-08T12:22:50.907Z,63.01
2023-05-08T12:25:17.893Z,62.90
2023-05-08T12:27:44.893Z,64.71
2023-05-08T12:30:13.998Z,63.66
2023-05-08T12:32:41.866Z,63.06
2023-05-08T12:35:09.943Z,63.83
2023-05-08T12:37:36.731Z,64.71
2023-05-08T12:40:04.628Z,64.76
2023-05-08T12:42:48.278Z,60.12
2023-05-08T12:45:22.284Z,58.61
2023-05-08T12:47:53.457Z,59.94
2023-05-08T12:50:22.297Z,59.72
2023-05-08T12:52:51.391Z,59.54
2023-05-08T12:55:23.786Z,60.16
2023-05-08T12:57:58.646Z,57.83
2023-05-08T13:00:25.207Z,59.62
2023-05-08T13:02:56.014Z,59.83
2023-05-08T13:05:23.562Z,60.73
2023-05-08T13:07:51.487Z,61.09
2023-05-08T13:10:23.959Z,60.48
2023-05-08T13:12:52.226Z,61.77
2023-05-08T13:15:18.798Z,62.60
2023-05-08T13:17:45.263Z,62.86
2023-05-08T13:20:12.024Z,62.33
2023-05-08T13:22:38.539Z,64.11
2023-05-08T13:25:05.804Z,63.34
2023-05-08T13:27:32.205Z,63.02
2023-05-08T13:29:58.627Z,59.90
2023-05-08T13:32:25.030Z,62.67
2023-05-08T13:34:53.103Z,62.90
2023-05-08T13:37:22.914Z,64.24
2023-05-08T13:39:49.266Z,63.43
2023-05-08T13:42:15.720Z,62.32
2023-05-08T13:44:42.120Z,62.14
2023-05-08T13:47:09.991Z,60.32
2023-05-08T13:49:36.328Z,59.32
2023-05-08T13:52:02.884Z,58.75
2023-05-08T13:54:29.416Z,58.77
2023-05-08T13:56:55.916Z,60.33
2023-05-08T13:59:22.307Z,59.01
2023-05-08T14:01:48.674Z,58.32
2023-05-08T14:04:15.335Z,59.66
2023-05-08T14:06:41.792Z,59.72
2023-05-08T14:09:08.197Z,58.74
2023-05-08T14:11:34.532Z,58.67
2023-05-08T14:14:00.972Z,59.92
2023-05-08T14:16:28.400Z,58.96
2023-05-08T14:18:54.882Z,58.93
2023-05-08T14:21:21.269Z,59.39
2023-05-08T14:23:47.662Z,60.98
2023-05-08T14:26:14.029Z,60.67
2023-05-08T14:28:40.541Z,60.10
2023-05-08T14:31:06.987Z,59.73
2023-05-08T14:33:33.456Z,61.38
2023-05-08T14:35:59.862Z,59.48
2023-05-08T14:38:26.293Z,59.32
2023-05-08T14:40:54.357Z,59.45
2023-05-08T14:43:21.553Z,60.70
2023-05-08T14:45:48.289Z,61.49
2023-05-08T14:48:14.920Z,59.13
2023-05-08T14:50:41.617Z,59.17
2023-05-08T14:53:08.322Z,58.92
2023-05-08T14:55:34.959Z,59.66
2023-05-08T14:58:01.484Z,60.04
2023-05-08T15:00:27.879Z,60.38
2023-05-08T15:02:54.427Z,61.41
2023-05-08T15:05:21.106Z,60.77
2023-05-08T15:07:49.494Z,59.81
2023-05-08T15:10:16.091Z,59.21
2023-05-08T15:12:42.553Z,57.68
2023-05-08T15:15:09.257Z,59.29
2023-05-08T15:17:36.488Z,59.63
2023-05-08T15:20:03.816Z,59.17
2023-05-08T15:22:30.350Z,60.24
2023-05-08T15:25:02.130Z,60.31
2023-05-08T15:27:31.963Z,60.85
2023-05-08T15:29:58.557Z,61.72
2023-05-08T15:32:25.066Z,60.69
2023-05-08T15:34:51.551Z,61.49
2023-05-08T15:37:17.935Z,60.41
2023-05-08T15:39:44.334Z,60.77
2023-05-08T15:42:10.711Z,59.49
2023-05-08T15:44:53.990Z,60.32
2023-05-08T15:47:23.102Z,60.11
2023-05-08T15:49:53.195Z,60.65
2023-05-08T15:52:19.881Z,59.16
2023-05-08T15:54:47.291Z,61.61
2023-05-08T15:57:13.824Z,60.74
2023-05-08T15:59:40.344Z,60.76
2023-05-08T16:02:06.781Z,61.70
2023-05-08T16:04:33.153Z,62.28
2023-05-08T16:06:59.993Z,62.44
2023-05-08T16:09:26.562Z,63.39
2023-05-08T16:11:52.992Z,62.78
2023-05-08T16:14:20.106Z,64.37
2023-05-08T16:16:46.583Z,64.00
2023-05-08T16:19:12.941Z,63.89
2023-05-08T16:21:39.409Z,63.39
2023-05-08T16:24:06.074Z,63.88
2023-05-08T16:26:32.429Z,64.98
2023-05-08T16:28:58.834Z,64.64
2023-05-08T16:31:25.216Z,66.07
2023-05-08T16:33:51.632Z,65.26
2023-05-08T16:36:17.956Z,65.57
2023-05-08T16:38:44.299Z,66.91
2023-05-08T16:41:11.245Z,66.78
2023-05-08T16:43:37.623Z,66.57
2023-05-08T16:46:06.503Z,66.48
2023-05-08T16:48:33.451Z,67.23
2023-05-08T16:50:59.909Z,67.42
2023-05-08T16:53:27.232Z,67.79
2023-05-08T16:55:54.534Z,66.33
2023-05-08T16:58:22.837Z,66.75
2023-05-08T17:00:49.417Z,65.69
2023-05-08T17:03:15.978Z,66.37
2023-05-08T17:05:42.459Z,66.61
2023-05-08T17:08:08.810Z,65.37
2023-05-08T17:10:35.716Z,65.78
2023-05-08T17:13:02.123Z,66.68
2023-05-08T17:15:28.968Z,65.98
2023-05-08T17:17:55.999Z,65.45
2023-05-08T17:20:22.401Z,66.10
2023-05-08T17:22:48.847Z,66.86
2023-05-08T17:25:15.309Z,67.47
2023-05-08T17:27:41.707Z,67.60
2023-05-08T17:30:11.891Z,67.37
2023-05-08T17:32:38.735Z,67.99
2023-05-08T17:35:05.807Z,67.54
2023-05-08T17:37:32.214Z,67.49
2023-05-08T17:39:58.568Z,68.14
2023-05-08T17:42:24.980Z,68.06
2023-05-08T17:44:51.312Z,68.39
2023-05-08T17:47:17.698Z,68.51
2023-05-08T17:49:44.101Z,69.38
2023-05-08T17:52:10.526Z,70.34
2023-05-08T17:54:36.872Z,70.40
2023-05-08T17:57:03.300Z,70.36
2023-05-08T17:59:29.676Z,70.12
2023-05-08T18:01:56.083Z,70.05
2023-05-08T18:04:22.848Z,70.42
2023-05-08T18:06:51.498Z,70.40
2023-05-08T18:09:17.840Z,70.16
2023-05-08T18:11:44.383Z,71.14
2023-05-08T18:14:10.907Z,70.74
2023-05-08T18:16:37.329Z,71.50
2023-05-08T18:19:03.797Z,71.31
2023-05-08T18:21:31.519Z,71.68
2023-05-08T18:23:57.942Z,71.67
2023-05-08T18:26:24.391Z,71.41
2023-05-08T18:28:50.794Z,71.45
2023-05-08T18:31:17.169Z,72.46
2023-05-08T18:33:43.593Z,72.59
2023-05-08T18:36:10.103Z,72.29
2023-05-08T18:38:36.617Z,73.28
2023-05-08T18:41:06.301Z,73.70
2023-05-08T18:43:33.007Z,73.10
2023-05-08T18:46:00.596Z,73.58
2023-05-08T18:48:27.255Z,73.72
2023-05-08T18:50:55.783Z,73.78
2023-05-08T18:53:22.248Z,73.69
2023-05-08T18:55:48.626Z,73.14
2023-05-08T18:58:15.003Z,73.96
2023-05-08T19:00:41.528Z,74.61
2023-05-08T19:03:08.015Z,74.06
2023-05-08T19:05:34.567Z,74.91
2023-05-08T19:08:00.976Z,75.41
2023-05-08T19:10:27.551Z,75.49
2023-05-08T19:12:54.008Z,75.95
2023-05-08T19:15:20.534Z,76.00
2023-05-08T19:17:47.001Z,75.99
2023-05-08T19:20:13.855Z,76.22
2023-05-08T19:22:40.559Z,76.73
2023-05-08T19:25:07.224Z,77.23
2023-05-08T19:27:33.615Z,76.42
2023-05-08T19:30:00.068Z,77.81
2023-05-08T19:32:26.611Z,78.05
2023-05-08T19:34:53.531Z,79.29
2023-05-08T19:37:19.889Z,80.45
2023-05-08T19:39:46.248Z,80.39
2023-05-08T19:42:13.807Z,80.54
2023-05-08T19:44:40.270Z,80.63
2023-05-08T19:47:07.088Z,80.88
2023-05-08T19:49:33.426Z,80.96
2023-05-08T19:51:59.871Z,81.20
2023-05-08T19:54:26.235Z,81.21
2023-05-08T19:56:52.615Z,79.89
2023-05-08T19:59:18.965Z,80.33
2023-05-08T20:01:45.503Z,80.82
2023-05-08T20:04:12.057Z,80.93
2023-05-08T20:06:39.218Z,81.19
2023-05-08T20:09:06.260Z,81.75
2023-05-08T20:11:32.782Z,80.96
2023-05-08T20:13:59.264Z,81.63
2023-05-08T20:16:25.730Z,82.16
2023-05-08T20:18:55.165Z,81.24
2023-05-08T20:21:21.667Z,82.10
2023-05-08T20:23:48.309Z,81.71
2023-05-08T20:26:14.664Z,82.25
2023-05-08T20:28:41.076Z,81.73
2023-05-08T20:31:07.594Z,81.62
2023-05-08T20:33:34.037Z,82.30
2023-05-08T20:36:00.467Z,81.24
2023-05-08T20:38:26.865Z,81.09
2023-05-08T20:40:55.835Z,81.38
2023-05-08T20:43:25.036Z,80.69
2023-05-08T20:45:51.458Z,81.38
2023-05-08T20:48:17.839Z,81.31
2023-05-08T20:50:44.243Z,81.38
2023-05-08T20:53:10.645Z,81.56
2023-05-08T20:55:37.053Z,81.25
2023-05-08T20:58:04.202Z,80.48
2023-05-08T21:00:30.798Z,80.61
2023-05-08T21:02:57.290Z,81.68
2023-05-08T21:05:23.740Z,81.20
2023-05-08T21:07:50.254Z,81.02
2023-05-08T21:10:17.243Z,82.34
2023-05-08T21:12:45.268Z,81.83
2023-05-08T21:15:11.733Z,82.23
2023-05-08T21:17:38.273Z,82.61
2023-05-08T21:20:05.155Z,82.50
2023-05-08T21:22:33.777Z,82.55
2023-05-08T21:25:00.211Z,81.76
2023-05-08T21:27:27.036Z,81.50
2023-05-08T21:29:53.483Z,81.59
2023-05-08T21:32:19.807Z,81.99
2023-05-08T21:34:46.162Z,82.27
2023-05-08T21:37:12.689Z,81.89
2023-05-08T21:39:39.080Z,81.90
2023-05-08T21:42:05.584Z,82.73
2023-05-08T21:44:31.977Z,82.95
2023-05-08T21:46:58.333Z,83.17
2023-05-08T21:49:24.758Z,82.56
2023-05-08T21:51:52.892Z,82.76
2023-05-08T21:54:22.279Z,83.14
2023-05-08T21:56:48.731Z,82.50
2023-05-08T21:59:15.603Z,82.89
2023-05-08T22:01:42.218Z,83.03
2023-05-08T22:04:08.633Z,83.08
2023-05-08T22:06:35.043Z,82.86
2023-05-08T22:09:01.850Z,83.13
2023-05-08T22:11:28.244Z,83.42
2023-05-08T22:13:54.677Z,83.98
2023-05-08T22:16:21.082Z,83.68
2023-05-08T22:18:47.452Z,83.30
2023-05-08T22:21:13.871Z,83.20
2023-05-08T22:23:40.249Z,83.58
2023-05-08T22:26:07.070Z,83.68
2023-05-08T22:28:33.474Z,84.21
2023-05-08T22:30:59.891Z,83.40
2023-05-08T22:33:26.292Z,84.00
2023-05-08T22:35:52.651Z,83.49
2023-05-08T22:38:19.068Z,84.15
2023-05-08T22:40:47.594Z,84.19
2023-05-08T22:43:14.300Z,84.09
2023-05-08T22:45:40.738Z,84.27
2023-05-08T22:48:07.356Z,84.35
2023-05-08T22:50:35.371Z,84.93
2023-05-08T22:53:07.713Z,84.86
2023-05-08T22:55:35.014Z,84.82
2023-05-08T22:58:01.809Z,84.91
2023-05-08T23:00:28.150Z,85.17
2023-05-08T23:02:55.086Z,84.62
2023-05-08T23:05:21.719Z,84.69
2023-05-08T23:07:48.048Z,85.46
2023-05-08T23:10:15.750Z,84.84
2023-05-08T23:12:42.899Z,85.16
2023-05-08T23:15:09.930Z,84.64
2023-05-08T23:17:36.354Z,84.15
2023-05-08T23:20:02.896Z,85.45
2023-05-08T23:22:29.266Z,86.32
2023-05-08T23:24:55.643Z,85.60
2023-05-08T23:27:22.059Z,85.17
2023-05-08T23:29:48.526Z,85.84
2023-05-08T23:32:15.276Z,84.97
2023-05-08T23:34:42.287Z,85.27
2023-05-08T23:37:08.959Z,85.08
2023-05-08T23:39:37.984Z,85.13
2023-05-08T23:42:04.425Z,85.42
2023-05-08T23:44:30.780Z,85.79
2023-05-08T23:46:57.149Z,85.59
2023-05-08T23:49:23.546Z,85.95
2023-05-08T23:51:49.930Z,86.12
2023-05-08T23:54:16.469Z,85.96
2023-05-08T23:56:43.097Z,86.63
2023-05-08T23:59:09.685Z,86.50
